This is the latest recevied weather packets stored in our database for station/object KE5WTH-14. If no packets are shown the sender has not sent any weather packets the latest 1 day(s).
| Time | Temp. | Humidity | Pressure | Rain* | Wind** | Luminosity | Snow |
|---|---|---|---|---|---|---|---|
| 1778081073 | 12.22° C | 83% | 1015.3 hPa | 0 mm | - | 46 W/m² | - |
| 1778080834 | 12.22° C | 82% | 1015.4 hPa | 0 mm | - | 46 W/m² | - |
| 1778080653 | 12.22° C | 82% | 1015.4 hPa | 0 mm | - | 48 W/m² | - |
| 1778080593 | 12.22° C | 82% | 1015.4 hPa | 0 mm | - | 48 W/m² | - |
| 1778080474 | 12.22° C | 82% | 1015.6 hPa | 0 mm | - | 30 W/m² | - |
| 1778080292 | 12.22° C | 82% | 1015.6 hPa | 0 mm | - | 28 W/m² | - |
| 1778080232 | 12.22° C | 82% | 1015.5 hPa | 0 mm | - | 32 W/m² | - |
| 1778080174 | 12.22° C | 82% | 1015.5 hPa | 0 mm | - | 30 W/m² | - |
| 1778080112 | 12.22° C | 82% | 1015.4 hPa | 0 mm | - | 30 W/m² | - |
| 1778080051 | 12.22° C | 82% | 1015.4 hPa | 0 mm | - | 32 W/m² | - |
| 1778079871 | 12.22° C | 82% | 1015.2 hPa | 0 mm | - | 42 W/m² | - |
| 1778079810 | 12.22° C | 82% | 1015.1 hPa | 0 mm | - | 44 W/m² | - |
| 1778079562 | 12.22° C | 81% | 1015 hPa | 0 mm | - | 39 W/m² | - |
| 1778079440 | 12.22° C | 81% | 1014.7 hPa | 0 mm | - | 70 W/m² | - |
| 1778079378 | 12.22° C | 81% | 1014.4 hPa | 0 mm | - | 106 W/m² | - |
| 1778078952 | 12.22° C | 81% | 1014.2 hPa | 0 mm | - | 106 W/m² | - |
| 1778078918 | 12.22° C | 81% | 1014.5 hPa | 0 mm | - | 109 W/m² | - |
| 1778078836 | 12.22° C | 82% | 1014.9 hPa | 0 mm | - | 86 W/m² | - |
| 1778078531 | 12.22° C | 82% | 1015.2 hPa | 0 mm | - | 84 W/m² | - |
| 1778078414 | 12.22° C | 81% | 1015.2 hPa | 0 mm | - | 92 W/m² | - |
| 1778078232 | 12.22° C | 82% | 1015.1 hPa | 0 mm | - | 60 W/m² | - |
| 1778078171 | 12.22° C | 82% | 1015.2 hPa | 0 mm | - | 60 W/m² | - |
| 1778078052 | 12.22° C | 82% | 1015.3 hPa | 0 mm | - | 58 W/m² | - |
| 1778077866 | 12.22° C | 82% | 1014.9 hPa | 0 mm | - | 88 W/m² | - |
| 1778077624 | 12.22° C | 83% | 1014.9 hPa | 0 mm | - | 72 W/m² | - |
* Rain latest hour (hover to see other rain measurements)
** Current wind speed in m/s (hover to see current wind gust speed)